sensor_id;sensor_type;location;lat;lon;timestamp;P1;durP1;ratioP1;P2;durP2;ratioP2
28605;SDS011;46498;49.968;7.754;2024-01-25T00:00:09;40.50;;;5.53;;
28605;SDS011;46498;49.968;7.754;2024-01-25T00:05:11;32.87;;;5.17;;
28605;SDS011;46498;49.968;7.754;2024-01-25T00:10:12;42.40;;;5.10;;
28605;SDS011;46498;49.968;7.754;2024-01-25T00:15:16;32.33;;;4.40;;
28605;SDS011;46498;49.968;7.754;2024-01-25T00:20:17;37.65;;;4.68;;
28605;SDS011;46498;49.968;7.754;2024-01-25T00:25:18;35.60;;;4.53;;
28605;SDS011;46498;49.968;7.754;2024-01-25T00:30:19;36.03;;;4.68;;
28605;SDS011;46498;49.968;7.754;2024-01-25T00:35:20;28.67;;;4.20;;
28605;SDS011;46498;49.968;7.754;2024-01-25T00:40:22;41.20;;;5.68;;
28605;SDS011;46498;49.968;7.754;2024-01-25T00:45:25;32.67;;;5.00;;
28605;SDS011;46498;49.968;7.754;2024-01-25T00:50:26;31.80;;;4.18;;
28605;SDS011;46498;49.968;7.754;2024-01-25T00:55:28;27.62;;;4.75;;
28605;SDS011;46498;49.968;7.754;2024-01-25T01:00:30;35.28;;;4.20;;
28605;SDS011;46498;49.968;7.754;2024-01-25T01:05:31;44.28;;;7.25;;
28605;SDS011;46498;49.968;7.754;2024-01-25T01:10:33;31.00;;;4.55;;
28605;SDS011;46498;49.968;7.754;2024-01-25T01:15:34;32.00;;;6.40;;
28605;SDS011;46498;49.968;7.754;2024-01-25T01:20:35;30.80;;;4.80;;
28605;SDS011;46498;49.968;7.754;2024-01-25T01:25:37;30.27;;;4.35;;
28605;SDS011;46498;49.968;7.754;2024-01-25T01:30:40;34.60;;;5.05;;
28605;SDS011;46498;49.968;7.754;2024-01-25T01:35:42;34.35;;;4.22;;
28605;SDS011;46498;49.968;7.754;2024-01-25T01:40:44;32.92;;;4.40;;
28605;SDS011;46498;49.968;7.754;2024-01-25T01:45:46;43.70;;;5.62;;
28605;SDS011;46498;49.968;7.754;2024-01-25T01:50:47;30.95;;;4.40;;
28605;SDS011;46498;49.968;7.754;2024-01-25T01:55:48;43.67;;;5.72;;
28605;SDS011;46498;49.968;7.754;2024-01-25T02:00:50;33.70;;;4.12;;
28605;SDS011;46498;49.968;7.754;2024-01-25T02:05:51;30.65;;;4.00;;
28605;SDS011;46498;49.968;7.754;2024-01-25T02:10:52;27.50;;;3.95;;
28605;SDS011;46498;49.968;7.754;2024-01-25T02:15:53;42.25;;;5.05;;
28605;SDS011;46498;49.968;7.754;2024-01-25T02:20:54;28.90;;;4.57;;
28605;SDS011;46498;49.968;7.754;2024-01-25T02:25:55;37.10;;;6.32;;
28605;SDS011;46498;49.968;7.754;2024-01-25T02:30:56;35.15;;;3.83;;
28605;SDS011;46498;49.968;7.754;2024-01-25T02:35:59;20.77;;;3.53;;
28605;SDS011;46498;49.968;7.754;2024-01-25T02:41:00;29.73;;;4.85;;
28605;SDS011;46498;49.968;7.754;2024-01-25T02:46:01;36.28;;;5.10;;
28605;SDS011;46498;49.968;7.754;2024-01-25T02:51:02;32.15;;;4.37;;
28605;SDS011;46498;49.968;7.754;2024-01-25T02:56:04;28.60;;;4.32;;
28605;SDS011;46498;49.968;7.754;2024-01-25T03:01:05;29.42;;;4.65;;
28605;SDS011;46498;49.968;7.754;2024-01-25T03:06:08;40.03;;;5.30;;
28605;SDS011;46498;49.968;7.754;2024-01-25T03:11:09;31.80;;;4.22;;
28605;SDS011;46498;49.968;7.754;2024-01-25T03:16:10;26.08;;;3.78;;
28605;SDS011;46498;49.968;7.754;2024-01-25T03:21:14;28.65;;;4.55;;
28605;SDS011;46498;49.968;7.754;2024-01-25T03:26:15;34.28;;;5.05;;
28605;SDS011;46498;49.968;7.754;2024-01-25T03:31:16;42.05;;;5.05;;
28605;SDS011;46498;49.968;7.754;2024-01-25T03:36:18;34.20;;;4.65;;
28605;SDS011;46498;49.968;7.754;2024-01-25T03:41:20;39.10;;;5.00;;
28605;SDS011;46498;49.968;7.754;2024-01-25T03:46:23;30.80;;;4.72;;
28605;SDS011;46498;49.968;7.754;2024-01-25T03:51:24;29.10;;;4.32;;
28605;SDS011;46498;49.968;7.754;2024-01-25T03:56:25;38.70;;;4.20;;
28605;SDS011;46498;49.968;7.754;2024-01-25T04:01:27;38.70;;;4.90;;
28605;SDS011;46498;49.968;7.754;2024-01-25T04:06:32;39.05;;;4.37;;
28605;SDS011;46498;49.968;7.754;2024-01-25T04:11:33;43.63;;;5.90;;
28605;SDS011;46498;49.968;7.754;2024-01-25T04:16:34;37.00;;;5.57;;
28605;SDS011;46498;49.968;7.754;2024-01-25T04:21:37;40.38;;;6.18;;
28605;SDS011;46498;49.968;7.754;2024-01-25T04:26:38;23.73;;;3.20;;
28605;SDS011;46498;49.968;7.754;2024-01-25T04:31:43;39.88;;;4.43;;
28605;SDS011;46498;49.968;7.754;2024-01-25T04:36:45;33.80;;;4.18;;
28605;SDS011;46498;49.968;7.754;2024-01-25T04:41:46;29.67;;;4.10;;
28605;SDS011;46498;49.968;7.754;2024-01-25T04:46:47;42.85;;;4.93;;
28605;SDS011;46498;49.968;7.754;2024-01-25T04:51:48;38.42;;;4.95;;
28605;SDS011;46498;49.968;7.754;2024-01-25T04:56:49;37.58;;;5.50;;
28605;SDS011;46498;49.968;7.754;2024-01-25T05:01:50;34.35;;;5.07;;
28605;SDS011;46498;49.968;7.754;2024-01-25T05:06:52;35.42;;;4.68;;
28605;SDS011;46498;49.968;7.754;2024-01-25T05:11:53;39.85;;;5.43;;
28605;SDS011;46498;49.968;7.754;2024-01-25T05:16:58;30.60;;;4.85;;
28605;SDS011;46498;49.968;7.754;2024-01-25T05:21:59;37.13;;;5.28;;
28605;SDS011;46498;49.968;7.754;2024-01-25T05:27:01;27.48;;;4.30;;
28605;SDS011;46498;49.968;7.754;2024-01-25T05:32:02;37.33;;;4.57;;
28605;SDS011;46498;49.968;7.754;2024-01-25T05:37:04;37.45;;;5.93;;
28605;SDS011;46498;49.968;7.754;2024-01-25T05:42:05;40.47;;;6.32;;
28605;SDS011;46498;49.968;7.754;2024-01-25T05:47:06;24.58;;;3.70;;
28605;SDS011;46498;49.968;7.754;2024-01-25T05:52:07;22.27;;;3.25;;
28605;SDS011;46498;49.968;7.754;2024-01-25T05:57:09;36.95;;;4.47;;
28605;SDS011;46498;49.968;7.754;2024-01-25T06:02:10;29.58;;;4.20;;
28605;SDS011;46498;49.968;7.754;2024-01-25T06:07:11;31.87;;;5.78;;
28605;SDS011;46498;49.968;7.754;2024-01-25T06:12:13;38.90;;;5.15;;
28605;SDS011;46498;49.968;7.754;2024-01-25T06:17:14;26.98;;;3.83;;
28605;SDS011;46498;49.968;7.754;2024-01-25T06:22:15;32.38;;;4.53;;
28605;SDS011;46498;49.968;7.754;2024-01-25T06:27:18;28.40;;;5.35;;
28605;SDS011;46498;49.968;7.754;2024-01-25T06:32:19;39.92;;;5.50;;
28605;SDS011;46498;49.968;7.754;2024-01-25T06:37:27;30.65;;;4.37;;
28605;SDS011;46498;49.968;7.754;2024-01-25T06:42:28;30.10;;;5.37;;
28605;SDS011;46498;49.968;7.754;2024-01-25T06:47:29;30.77;;;4.72;;
28605;SDS011;46498;49.968;7.754;2024-01-25T06:52:30;43.80;;;5.07;;
28605;SDS011;46498;49.968;7.754;2024-01-25T06:57:31;31.55;;;6.35;;
28605;SDS011;46498;49.968;7.754;2024-01-25T07:02:32;27.23;;;4.70;;
28605;SDS011;46498;49.968;7.754;2024-01-25T07:07:34;35.65;;;5.12;;
28605;SDS011;46498;49.968;7.754;2024-01-25T07:12:35;29.58;;;4.62;;
28605;SDS011;46498;49.968;7.754;2024-01-25T07:17:37;37.20;;;4.78;;
28605;SDS011;46498;49.968;7.754;2024-01-25T07:22:38;30.27;;;4.57;;
28605;SDS011;46498;49.968;7.754;2024-01-25T07:27:39;34.33;;;5.20;;
28605;SDS011;46498;49.968;7.754;2024-01-25T07:32:40;32.33;;;5.80;;
28605;SDS011;46498;49.968;7.754;2024-01-25T07:37:46;38.35;;;6.47;;
28605;SDS011;46498;49.968;7.754;2024-01-25T07:42:47;28.35;;;4.95;;
28605;SDS011;46498;49.968;7.754;2024-01-25T07:47:48;30.12;;;5.03;;
28605;SDS011;46498;49.968;7.754;2024-01-25T07:52:54;41.78;;;5.07;;
28605;SDS011;46498;49.968;7.754;2024-01-25T07:57:55;43.95;;;6.93;;
28605;SDS011;46498;49.968;7.754;2024-01-25T08:02:57;44.60;;;5.78;;
28605;SDS011;46498;49.968;7.754;2024-01-25T08:07:58;38.03;;;5.05;;
28605;SDS011;46498;49.968;7.754;2024-01-25T08:12:59;37.35;;;5.82;;
28605;SDS011;46498;49.968;7.754;2024-01-25T08:18:08;30.30;;;5.72;;
28605;SDS011;46498;49.968;7.754;2024-01-25T08:23:09;40.22;;;6.28;;
28605;SDS011;46498;49.968;7.754;2024-01-25T08:28:10;38.47;;;7.05;;
28605;SDS011;46498;49.968;7.754;2024-01-25T08:33:12;36.55;;;5.78;;
28605;SDS011;46498;49.968;7.754;2024-01-25T08:38:14;32.00;;;5.60;;
28605;SDS011;46498;49.968;7.754;2024-01-25T08:43:14;39.50;;;8.07;;
28605;SDS011;46498;49.968;7.754;2024-01-25T08:48:15;39.25;;;8.23;;
28605;SDS011;46498;49.968;7.754;2024-01-25T08:58:22;42.45;;;7.37;;
28605;SDS011;46498;49.968;7.754;2024-01-25T09:03:24;33.95;;;5.57;;
28605;SDS011;46498;49.968;7.754;2024-01-25T09:08:25;36.20;;;6.15;;
28605;SDS011;46498;49.968;7.754;2024-01-25T09:13:26;45.05;;;6.00;;
28605;SDS011;46498;49.968;7.754;2024-01-25T09:18:27;32.90;;;5.28;;
28605;SDS011;46498;49.968;7.754;2024-01-25T09:23:28;43.97;;;5.60;;
28605;SDS011;46498;49.968;7.754;2024-01-25T09:28:29;44.10;;;7.35;;
28605;SDS011;46498;49.968;7.754;2024-01-25T09:33:31;36.88;;;5.22;;
28605;SDS011;46498;49.968;7.754;2024-01-25T09:38:32;40.60;;;5.28;;
28605;SDS011;46498;49.968;7.754;2024-01-25T09:43:35;32.78;;;5.65;;
28605;SDS011;46498;49.968;7.754;2024-01-25T09:48:37;34.13;;;5.53;;
28605;SDS011;46498;49.968;7.754;2024-01-25T09:53:41;41.35;;;7.57;;
28605;SDS011;46498;49.968;7.754;2024-01-25T09:58:43;48.75;;;7.20;;
28605;SDS011;46498;49.968;7.754;2024-01-25T10:03:46;34.22;;;5.62;;
28605;SDS011;46498;49.968;7.754;2024-01-25T10:08:48;43.22;;;7.25;;
28605;SDS011;46498;49.968;7.754;2024-01-25T10:13:49;35.13;;;7.15;;
28605;SDS011;46498;49.968;7.754;2024-01-25T10:18:51;47.80;;;8.95;;
28605;SDS011;46498;49.968;7.754;2024-01-25T10:23:57;52.85;;;10.85;;
28605;SDS011;46498;49.968;7.754;2024-01-25T10:29:00;47.63;;;9.30;;
28605;SDS011;46498;49.968;7.754;2024-01-25T10:34:03;48.67;;;8.88;;
28605;SDS011;46498;49.968;7.754;2024-01-25T10:39:06;45.20;;;7.63;;
28605;SDS011;46498;49.968;7.754;2024-01-25T10:44:09;27.37;;;6.37;;
28605;SDS011;46498;49.968;7.754;2024-01-25T10:49:11;36.50;;;7.18;;
28605;SDS011;46498;49.968;7.754;2024-01-25T10:54:12;34.55;;;5.93;;
28605;SDS011;46498;49.968;7.754;2024-01-25T10:59:15;42.42;;;6.75;;
28605;SDS011;46498;49.968;7.754;2024-01-25T11:04:18;35.37;;;5.40;;
28605;SDS011;46498;49.968;7.754;2024-01-25T11:09:21;32.67;;;5.53;;
28605;SDS011;46498;49.968;7.754;2024-01-25T11:14:25;27.80;;;5.45;;
28605;SDS011;46498;49.968;7.754;2024-01-25T11:19:26;42.30;;;6.97;;
28605;SDS011;46498;49.968;7.754;2024-01-25T11:24:28;33.28;;;5.10;;
28605;SDS011;46498;49.968;7.754;2024-01-25T11:29:31;35.72;;;6.65;;
28605;SDS011;46498;49.968;7.754;2024-01-25T11:34:32;39.97;;;7.03;;
28605;SDS011;46498;49.968;7.754;2024-01-25T11:39:33;33.22;;;6.00;;
28605;SDS011;46498;49.968;7.754;2024-01-25T11:44:37;37.72;;;5.93;;
28605;SDS011;46498;49.968;7.754;2024-01-25T11:49:39;33.88;;;5.68;;
28605;SDS011;46498;49.968;7.754;2024-01-25T11:54:42;30.12;;;5.03;;
28605;SDS011;46498;49.968;7.754;2024-01-25T11:59:43;37.97;;;5.53;;
28605;SDS011;46498;49.968;7.754;2024-01-25T12:04:47;33.70;;;5.90;;
28605;SDS011;46498;49.968;7.754;2024-01-25T12:10:04;32.03;;;5.90;;
28605;SDS011;46498;49.968;7.754;2024-01-25T12:15:07;35.47;;;5.28;;
28605;SDS011;46498;49.968;7.754;2024-01-25T12:20:08;23.65;;;3.97;;
28605;SDS011;46498;49.968;7.754;2024-01-25T12:25:13;33.25;;;4.30;;
28605;SDS011;46498;49.968;7.754;2024-01-25T12:30:15;23.50;;;4.05;;
28605;SDS011;46498;49.968;7.754;2024-01-25T12:35:16;32.42;;;4.87;;
28605;SDS011;46498;49.968;7.754;2024-01-25T12:40:18;27.90;;;5.12;;
28605;SDS011;46498;49.968;7.754;2024-01-25T12:50:22;24.23;;;4.40;;
28605;SDS011;46498;49.968;7.754;2024-01-25T12:55:23;18.77;;;3.45;;
28605;SDS011;46498;49.968;7.754;2024-01-25T13:00:24;26.15;;;5.18;;
28605;SDS011;46498;49.968;7.754;2024-01-25T13:05:27;23.12;;;4.78;;
28605;SDS011;46498;49.968;7.754;2024-01-25T13:10:28;19.42;;;3.72;;
28605;SDS011;46498;49.968;7.754;2024-01-25T13:15:29;25.52;;;5.00;;
28605;SDS011;46498;49.968;7.754;2024-01-25T13:20:30;20.65;;;3.10;;
28605;SDS011;46498;49.968;7.754;2024-01-25T13:25:31;18.25;;;3.05;;
28605;SDS011;46498;49.968;7.754;2024-01-25T13:30:32;23.40;;;3.53;;
28605;SDS011;46498;49.968;7.754;2024-01-25T13:35:33;25.45;;;3.83;;
28605;SDS011;46498;49.968;7.754;2024-01-25T13:40:35;26.02;;;3.78;;
28605;SDS011;46498;49.968;7.754;2024-01-25T13:45:36;21.73;;;3.62;;
28605;SDS011;46498;49.968;7.754;2024-01-25T13:50:37;20.90;;;2.95;;
28605;SDS011;46498;49.968;7.754;2024-01-25T13:55:40;24.70;;;3.90;;
28605;SDS011;46498;49.968;7.754;2024-01-25T14:00:42;26.80;;;4.03;;
28605;SDS011;46498;49.968;7.754;2024-01-25T14:05:43;27.60;;;4.10;;
28605;SDS011;46498;49.968;7.754;2024-01-25T14:10:44;20.52;;;3.65;;
28605;SDS011;46498;49.968;7.754;2024-01-25T14:15:46;19.10;;;3.90;;
28605;SDS011;46498;49.968;7.754;2024-01-25T14:20:48;21.87;;;3.80;;
28605;SDS011;46498;49.968;7.754;2024-01-25T14:25:49;28.55;;;4.25;;
28605;SDS011;46498;49.968;7.754;2024-01-25T14:30:51;28.20;;;4.77;;
28605;SDS011;46498;49.968;7.754;2024-01-25T14:35:52;22.85;;;4.80;;
28605;SDS011;46498;49.968;7.754;2024-01-25T14:40:53;21.75;;;4.65;;
28605;SDS011;46498;49.968;7.754;2024-01-25T14:46:00;30.55;;;4.85;;
28605;SDS011;46498;49.968;7.754;2024-01-25T14:51:02;28.67;;;4.53;;
28605;SDS011;46498;49.968;7.754;2024-01-25T14:56:03;23.30;;;4.78;;
28605;SDS011;46498;49.968;7.754;2024-01-25T15:01:05;20.43;;;3.60;;
28605;SDS011;46498;49.968;7.754;2024-01-25T15:06:06;28.52;;;4.07;;
28605;SDS011;46498;49.968;7.754;2024-01-25T15:11:07;26.27;;;4.60;;
28605;SDS011;46498;49.968;7.754;2024-01-25T15:16:09;20.17;;;4.15;;
28605;SDS011;46498;49.968;7.754;2024-01-25T15:21:10;23.77;;;4.32;;
28605;SDS011;46498;49.968;7.754;2024-01-25T15:26:10;18.50;;;3.78;;
28605;SDS011;46498;49.968;7.754;2024-01-25T15:31:12;34.35;;;5.35;;
28605;SDS011;46498;49.968;7.754;2024-01-25T15:36:13;30.65;;;6.32;;
28605;SDS011;46498;49.968;7.754;2024-01-25T15:41:13;29.58;;;6.12;;
28605;SDS011;46498;49.968;7.754;2024-01-25T15:46:19;19.40;;;4.03;;
28605;SDS011;46498;49.968;7.754;2024-01-25T15:51:20;34.33;;;6.70;;
28605;SDS011;46498;49.968;7.754;2024-01-25T15:56:22;28.77;;;7.37;;
28605;SDS011;46498;49.968;7.754;2024-01-25T16:01:23;29.35;;;6.93;;
28605;SDS011;46498;49.968;7.754;2024-01-25T16:06:24;58.35;;;12.13;;
28605;SDS011;46498;49.968;7.754;2024-01-25T16:11:25;35.67;;;8.70;;
28605;SDS011;46498;49.968;7.754;2024-01-25T16:16:26;23.25;;;4.75;;
28605;SDS011;46498;49.968;7.754;2024-01-25T16:21:27;27.62;;;4.82;;
28605;SDS011;46498;49.968;7.754;2024-01-25T16:26:28;30.25;;;4.87;;
28605;SDS011;46498;49.968;7.754;2024-01-25T16:36:32;31.42;;;5.82;;
28605;SDS011;46498;49.968;7.754;2024-01-25T16:41:33;22.98;;;4.15;;
28605;SDS011;46498;49.968;7.754;2024-01-25T16:46:35;23.80;;;3.83;;
28605;SDS011;46498;49.968;7.754;2024-01-25T16:51:36;25.95;;;4.78;;
28605;SDS011;46498;49.968;7.754;2024-01-25T16:56:37;22.73;;;4.82;;
28605;SDS011;46498;49.968;7.754;2024-01-25T17:01:38;24.23;;;3.80;;
28605;SDS011;46498;49.968;7.754;2024-01-25T17:06:39;24.12;;;5.68;;
28605;SDS011;46498;49.968;7.754;2024-01-25T17:11:42;22.58;;;3.58;;
28605;SDS011;46498;49.968;7.754;2024-01-25T17:16:43;19.08;;;3.58;;
28605;SDS011;46498;49.968;7.754;2024-01-25T17:21:44;25.10;;;3.80;;
28605;SDS011;46498;49.968;7.754;2024-01-25T17:26:45;21.35;;;3.70;;
28605;SDS011;46498;49.968;7.754;2024-01-25T17:31:46;23.85;;;3.42;;
28605;SDS011;46498;49.968;7.754;2024-01-25T17:36:49;18.52;;;4.12;;
28605;SDS011;46498;49.968;7.754;2024-01-25T17:41:50;19.85;;;3.65;;
28605;SDS011;46498;49.968;7.754;2024-01-25T17:46:52;25.10;;;3.87;;
28605;SDS011;46498;49.968;7.754;2024-01-25T17:51:53;16.52;;;3.30;;
28605;SDS011;46498;49.968;7.754;2024-01-25T17:56:54;25.35;;;3.25;;
28605;SDS011;46498;49.968;7.754;2024-01-25T18:01:58;17.92;;;3.95;;
28605;SDS011;46498;49.968;7.754;2024-01-25T18:07:01;23.38;;;4.00;;
28605;SDS011;46498;49.968;7.754;2024-01-25T18:12:02;30.00;;;6.20;;
28605;SDS011;46498;49.968;7.754;2024-01-25T18:17:03;29.55;;;4.87;;
28605;SDS011;46498;49.968;7.754;2024-01-25T18:22:04;25.55;;;3.85;;
28605;SDS011;46498;49.968;7.754;2024-01-25T18:27:05;21.00;;;3.75;;
28605;SDS011;46498;49.968;7.754;2024-01-25T18:32:06;34.67;;;4.57;;
28605;SDS011;46498;49.968;7.754;2024-01-25T18:37:10;20.20;;;4.25;;
28605;SDS011;46498;49.968;7.754;2024-01-25T18:42:11;20.27;;;4.20;;
28605;SDS011;46498;49.968;7.754;2024-01-25T18:47:14;16.42;;;3.72;;
28605;SDS011;46498;49.968;7.754;2024-01-25T18:52:15;23.77;;;3.67;;
28605;SDS011;46498;49.968;7.754;2024-01-25T19:02:38;19.67;;;4.05;;
28605;SDS011;46498;49.968;7.754;2024-01-25T19:07:39;20.33;;;4.35;;
28605;SDS011;46498;49.968;7.754;2024-01-25T19:12:42;21.47;;;4.10;;
28605;SDS011;46498;49.968;7.754;2024-01-25T19:17:43;18.25;;;3.62;;
28605;SDS011;46498;49.968;7.754;2024-01-25T19:22:44;12.90;;;3.22;;
28605;SDS011;46498;49.968;7.754;2024-01-25T19:27:45;19.17;;;4.12;;
28605;SDS011;46498;49.968;7.754;2024-01-25T19:32:47;17.33;;;3.60;;
28605;SDS011;46498;49.968;7.754;2024-01-25T19:37:51;16.87;;;2.70;;
28605;SDS011;46498;49.968;7.754;2024-01-25T19:42:52;14.18;;;3.25;;
28605;SDS011;46498;49.968;7.754;2024-01-25T19:47:55;13.32;;;3.37;;
28605;SDS011;46498;49.968;7.754;2024-01-25T19:52:56;20.40;;;3.30;;
28605;SDS011;46498;49.968;7.754;2024-01-25T19:57:58;8.77;;;2.50;;
28605;SDS011;46498;49.968;7.754;2024-01-25T20:03:03;18.10;;;2.78;;
28605;SDS011;46498;49.968;7.754;2024-01-25T20:08:05;16.90;;;4.45;;
28605;SDS011;46498;49.968;7.754;2024-01-25T20:13:07;12.53;;;5.10;;
28605;SDS011;46498;49.968;7.754;2024-01-25T20:18:08;7.95;;;3.37;;
28605;SDS011;46498;49.968;7.754;2024-01-25T20:23:12;10.98;;;3.15;;
28605;SDS011;46498;49.968;7.754;2024-01-25T20:28:13;13.88;;;3.58;;
28605;SDS011;46498;49.968;7.754;2024-01-25T20:33:15;12.40;;;3.50;;
28605;SDS011;46498;49.968;7.754;2024-01-25T20:38:18;12.45;;;3.22;;
28605;SDS011;46498;49.968;7.754;2024-01-25T20:43:19;16.15;;;3.10;;
28605;SDS011;46498;49.968;7.754;2024-01-25T20:48:19;10.20;;;2.90;;
28605;SDS011;46498;49.968;7.754;2024-01-25T20:53:21;10.20;;;2.53;;
28605;SDS011;46498;49.968;7.754;2024-01-25T20:58:23;10.55;;;2.83;;
28605;SDS011;46498;49.968;7.754;2024-01-25T21:03:27;20.37;;;9.15;;
28605;SDS011;46498;49.968;7.754;2024-01-25T21:08:31;10.57;;;4.03;;
28605;SDS011;46498;49.968;7.754;2024-01-25T21:13:35;11.55;;;4.07;;
28605;SDS011;46498;49.968;7.754;2024-01-25T21:18:37;11.05;;;5.22;;
28605;SDS011;46498;49.968;7.754;2024-01-25T21:23:41;20.12;;;6.65;;
28605;SDS011;46498;49.968;7.754;2024-01-25T21:28:42;15.52;;;6.53;;
28605;SDS011;46498;49.968;7.754;2024-01-25T21:33:45;14.02;;;6.62;;
28605;SDS011;46498;49.968;7.754;2024-01-25T21:38:47;16.98;;;7.55;;
28605;SDS011;46498;49.968;7.754;2024-01-25T21:43:48;15.55;;;7.10;;
28605;SDS011;46498;49.968;7.754;2024-01-25T21:48:49;10.75;;;6.87;;
28605;SDS011;46498;49.968;7.754;2024-01-25T21:53:50;16.00;;;6.70;;
28605;SDS011;46498;49.968;7.754;2024-01-25T21:58:53;16.07;;;6.67;;
28605;SDS011;46498;49.968;7.754;2024-01-25T22:03:54;13.48;;;6.20;;
28605;SDS011;46498;49.968;7.754;2024-01-25T22:08:55;11.65;;;6.25;;
28605;SDS011;46498;49.968;7.754;2024-01-25T22:13:56;11.90;;;6.07;;
28605;SDS011;46498;49.968;7.754;2024-01-25T22:18:57;14.25;;;6.45;;
28605;SDS011;46498;49.968;7.754;2024-01-25T22:23:58;9.38;;;5.53;;
28605;SDS011;46498;49.968;7.754;2024-01-25T22:28:58;9.63;;;5.53;;
28605;SDS011;46498;49.968;7.754;2024-01-25T22:33:59;9.82;;;5.37;;
28605;SDS011;46498;49.968;7.754;2024-01-25T22:39:02;9.85;;;5.72;;
28605;SDS011;46498;49.968;7.754;2024-01-25T22:44:04;12.52;;;6.00;;
28605;SDS011;46498;49.968;7.754;2024-01-25T22:49:05;9.65;;;5.20;;
28605;SDS011;46498;49.968;7.754;2024-01-25T22:54:07;9.13;;;5.37;;
28605;SDS011;46498;49.968;7.754;2024-01-25T22:59:08;11.55;;;5.68;;
28605;SDS011;46498;49.968;7.754;2024-01-25T23:04:09;12.85;;;5.80;;
28605;SDS011;46498;49.968;7.754;2024-01-25T23:09:10;10.57;;;5.70;;
28605;SDS011;46498;49.968;7.754;2024-01-25T23:14:11;8.35;;;4.85;;
28605;SDS011;46498;49.968;7.754;2024-01-25T23:19:12;9.65;;;5.65;;
28605;SDS011;46498;49.968;7.754;2024-01-25T23:24:14;10.40;;;5.00;;
28605;SDS011;46498;49.968;7.754;2024-01-25T23:29:14;7.97;;;5.12;;
28605;SDS011;46498;49.968;7.754;2024-01-25T23:34:15;9.27;;;5.50;;
28605;SDS011;46498;49.968;7.754;2024-01-25T23:39:17;13.60;;;6.20;;
28605;SDS011;46498;49.968;7.754;2024-01-25T23:44:19;9.43;;;5.55;;
28605;SDS011;46498;49.968;7.754;2024-01-25T23:49:20;9.77;;;5.60;;
28605;SDS011;46498;49.968;7.754;2024-01-25T23:54:22;8.33;;;6.10;;
28605;SDS011;46498;49.968;7.754;2024-01-25T23:59:24;13.07;;;6.72;;
